x

Naubinway, Mi (nabm4) Weather Station

5:44pm - Sun 21st Dec 2014 All times are CST. -6 hours from GMT.

  • Wind
    16mph, 21mph gusts
  • Air Temp 34°f
  • Sea Pressure 1017.9mb
  • Naubinway, Mi
  • Naubinway, Mi

More Historic Weather Station data

Upgrade to MSW Pro to gain access to the past 30 days of data for over 8000 Wavebouys and Weather Stations around the globe.

Join Pro

Comparision Forecast

View Surf forecast
   
Sun 12/21 5:44pm 16 21 mph 1017.9mb 34f
5:40pm 17 21 mph 1018.3mb 34f
5:30pm 17 20 mph 1018.3mb 33f
5:20pm 17 20 mph 1018.3mb 33f
5:10pm 16 21 mph 1018.3mb 33f
5:00pm 18 21 mph 1018.3mb 33f
4:44pm 18 22 mph 1018.3mb 33f
4:40pm 18 21 mph 1018.3mb 33f
4:30pm 18 21 mph 1018.3mb 33f
4:20pm 18 22 mph 1018.3mb 33f
4:10pm 17 21 mph 1018.3mb 33f
4:00pm 17 21 mph 1018.3mb 33f
3:43pm 16 21 mph 1018.3mb 33f
3:40pm 15 18 mph 1017.9mb 33f
3:30pm 15 18 mph 1018.3mb 33f
3:20pm 16 20 mph 1017.9mb 33f
3:10pm 18 21 mph 1017.9mb 33f
3:00pm 15 20 mph 1018.3mb 33f
2:43pm 17 22 mph 1018.3mb 33f
2:40pm 16 20 mph 1018.3mb 33f
2:30pm 17 22 mph 1018.3mb 33f
2:20pm 17 21 mph 1018.3mb 33f
2:10pm 16 20 mph 1018.3mb 33f
2:00pm 17 21 mph 1018.3mb 33f
1:42pm 16 21 mph 1018.3mb 33f
1:40pm 16 21 mph 1018.3mb 33f
1:30pm 18 21 mph 1018.3mb 33f
1:20pm 17 20 mph 1018.6mb 32f
1:10pm 15 21 mph 1018.6mb 32f
1:00pm 18 20 mph 1018.6mb 32f
12:42pm 17 20 mph 1019mb 32f
12:40pm 16 18 mph 1019mb 32f
12:30pm 16 18 mph 1019mb 32f
12:20pm 15 18 mph 1019.3mb 32f
12:10pm 15 17 mph 1019.3mb 31f
12:00pm 14 18 mph 1019.6mb 31f
11:42am 16 20 mph 1019.6mb 31f
11:40am 16 20 mph 1019.6mb 31f
11:30am 15 18 mph 1020mb 31f
11:20am 15 18 mph 1020.3mb 31f
11:10am 16 18 mph 1020.3mb 31f
11:00am 16 18 mph 1020.3mb 31f
10:41am 16 20 mph 1020.7mb 31f
10:40am 16 18 mph 1020.7mb 31f
10:30am 15 18 mph 1020.7mb 31f
10:20am 16 18 mph 1021mb 31f
10:10am 15 20 mph 1021mb 31f
10:00am 14 18 mph 1021mb 31f
9:41am 16 21 mph 1021mb 30f
9:40am 16 20 mph 1021mb 30f
9:30am 18 21 mph 1020.7mb 30f
9:20am 15 16 mph 1020.7mb 31f
9:10am 15 16 mph 1021mb 31f
9:00am 13 16 mph 1021mb 31f
8:40am 14 17 mph 1021.3mb 30f
8:30am 15 18 mph 1021.3mb 30f
8:20am 16 18 mph 1021.3mb 30f
8:10am 16 18 mph 1021.3mb 31f
8:00am 17 20 mph 1021.3mb 31f
7:40am 17 18 mph 1021.7mb 31f
7:30am 16 18 mph 1021.3mb 31f
7:20am 15 17 mph 1021.3mb 31f
7:10am 14 16 mph 1021.3mb 31f
7:00am 15 16 mph 1021.3mb 32f
6:40am 14 15 mph 1021.7mb 32f
6:30am 13 14 mph 1021.3mb 32f
6:20am 13 14 mph 1021.3mb 32f
6:10am 13 14 mph 1021.3mb 32f
6:00am 13 15 mph 1021.3mb 32f
5:40am 14 17 mph 1021.3mb 32f
5:30am 13 15 mph 1021.3mb 32f
5:20am 13 15 mph 1021.3mb 33f
5:10am 10 13 mph 1021.3mb 33f
5:00am 13 15 mph 1021.3mb 32f
4:40am 15 18 mph 1022mb 32f
4:30am 16 18 mph 1021.3mb 32f
4:25am 15 20 mph 1021.7mb 32f
4:20am 16 17 mph 1021.7mb 32f
4:10am 15 18 mph 1021.7mb 32f
4:00am 16 18 mph 1021.7mb 32f
3:40am 17 20 mph 1021.7mb 32f
3:30am 14 17 mph 1021.7mb 31f
3:24am 14 20 mph 1022mb 31f
3:20am 11 17 mph 1022mb 31f
3:10am 16 18 mph 1022mb 31f
3:00am 14 17 mph 1022mb 31f
2:40am 16 18 mph 1022mb 31f
2:30am 17 20 mph 1022mb 31f
2:24am 17 20 mph 1022.4mb 31f
2:20am 15 18 mph 1022.4mb 31f
2:10am 17 18 mph 1022.4mb 31f
2:00am 15 17 mph 1022.4mb 31f
1:40am 15 17 mph 1022.4mb 31f
1:30am 14 17 mph 1022mb 31f
1:23am 15 20 mph 1022mb 31f
1:20am 14 16 mph 1022mb 31f
1:10am 15 17 mph 1022mb 31f
1:00am 14 20 mph 1022.4mb 30f
12:40am 14 17 mph 1022.4mb 30f
12:30am 13 16 mph 1022.4mb 30f
12:23am 14 17 mph 1022.4mb 30f
12:20am 13 15 mph 1022.4mb 30f
12:10am 10 17 mph 1022.4mb 30f
12:00am 15 17 mph 1022.4mb 30f
Sat 12/20 11:40pm 15 17 mph 1022.4mb 30f
11:30pm 14 16 mph 1022.7mb 30f
11:23pm 14 18 mph 1022.7mb 30f
11:20pm 14 17 mph 1022.7mb 30f
11:10pm 17 18 mph 1022.7mb 30f
11:00pm 14 17 mph 1022.7mb 30f
10:40pm 16 17 mph 1022.7mb 30f
10:30pm 14 16 mph 1022.7mb 30f
10:22pm 13 16 mph 1022.7mb 30f
10:20pm 14 16 mph 1022.7mb 30f
10:10pm 15 16 mph 1022.7mb 30f
10:00pm 14 16 mph 1022.7mb 29f
9:40pm 13 14 mph 1022.7mb 29f
9:30pm 13 15 mph 1023mb 29f
9:22pm 13 15 mph 1022.7mb 29f
9:20pm 14 15 mph 1022.7mb 29f
9:10pm 13 14 mph 1023mb 29f
9:00pm 13 14 mph 1023mb 29f
8:40pm 11 14 mph 1023mb 29f
8:30pm 13 15 mph 1023mb 29f
8:21pm 13 15 mph 1023mb 29f
8:20pm 13 14 mph 1023mb 29f
8:10pm 13 15 mph 1023mb 29f
8:00pm 13 14 mph 1023mb 30f
7:40pm 13 14 mph 1023mb 30f
7:30pm 11 14 mph 1023.4mb 30f
7:21pm 13 14 mph 1023.4mb 30f
7:20pm 13 14 mph 1023.4mb 30f
7:10pm 10 13 mph 1023.4mb 30f
7:00pm 10 13 mph 1023.4mb 30f
6:40pm 10 11 mph 1023.4mb 30f
6:30pm 10 11 mph 1023.4mb 30f
6:21pm 10 14 mph 1023.4mb 30f
6:20pm 10 11 mph 1023.4mb 30f
6:10pm 10 11 mph 1023.4mb 30f
6:00pm 9 11 mph 1023.4mb 30f
5:50pm 10 11 mph 1023.4mb 30f
5:40pm 10 13 mph 1023.4mb 29f
5:30pm 10 14 mph 1023.4mb 29f
5:20pm 13 14 mph 1023.4mb 29f
5:10pm 10 13 mph 1023.4mb 29f
5:00pm 10 14 mph 1023.4mb 29f
4:50pm 11 14 mph 1023.7mb 29f
4:40pm 11 13 mph 1023.4mb 29f
4:30pm 11 13 mph 1023.4mb 29f
4:20pm 10 13 mph 1023.4mb 29f
4:10pm 11 13 mph 1023.4mb 29f
4:00pm 10 13 mph 1023.4mb 29f
3:50pm 10 13 mph 1023.4mb 29f
3:40pm 10 13 mph 1023.4mb 29f
3:30pm 10 11 mph 1023.4mb 29f
3:20pm 11 13 mph 1023.4mb 29f
3:19pm 11 13 mph 1023.4mb 29f
3:10pm 10 11 mph 1023mb 29f
3:00pm 10 13 mph 1023mb 29f
2:50pm 11
mph
1023mb 29f
2:40pm 10 11 mph 1023mb 29f
2:30pm 10 13 mph 1023mb 29f
2:20pm 9 11 mph 1023mb 29f
2:19pm 9 11 mph 1022.7mb 29f
2:10pm 9 11 mph 1022.7mb 29f
2:00pm 9 10 mph 1022.7mb 29f
1:50pm 8 10 mph 1022.7mb 29f
1:40pm 8 10 mph 1022.7mb 29f
1:30pm 7 9 mph 1022.7mb 29f
1:20pm 9 13 mph 1023mb 28f
1:19pm 8 13 mph 1023mb 28f
1:10pm 8 9 mph 1023mb 28f
1:00pm 7 10 mph 1023mb 28f
12:50pm 9 10 mph 1023.4mb 28f
12:40pm 10 11 mph 1023.4mb 28f
12:30pm 10 13 mph 1023.4mb 28f
12:20pm 9 11 mph 1023.4mb 28f
12:18pm 10 11 mph 1023.4mb 28f
12:10pm 9 10 mph 1023.7mb 27f
12:00pm 9 10 mph 1024mb 27f
11:50am 9 11 mph 1024mb 28f
11:40am 10 11 mph 1024mb 28f
11:30am 9 10 mph 1024mb 28f
11:20am 9 10 mph 1024.4mb 28f
11:18am 8 10 mph 1024.4mb 28f
11:10am 8 10 mph 1024.4mb 27f
11:00am 8 9 mph 1024.4mb 28f
10:50am 7 9 mph 1024.4mb 28f
10:40am 8 10 mph 1024.4mb 28f
10:30am 8 9 mph 1024.4mb 28f
10:20am 9 10 mph 1024.4mb 27f
10:17am 9 13 mph 1024.7mb 27f
10:10am 9 11 mph 1024.7mb 27f
10:00am 10 11 mph 1024.7mb 27f
9:50am 10 11 mph 1024.7mb 26f
9:40am 10 13 mph 1024.7mb 26f
9:30am 11 13 mph 1024.7mb 26f
9:20am 11 13 mph 1024.4mb 26f
9:17am 11
mph
1024.4mb 26f
9:10am 10 11 mph 1024.7mb 26f
9:00am 10
mph
1024.4mb 26f
8:50am 9 11 mph 1024.4mb 26f
8:40am 10 11 mph 1024.7mb 25f
8:30am 10
mph
1024.4mb 25f
8:20am 8 9 mph 1024.7mb 26f
8:17am 8 9 mph 1024.7mb 26f
8:10am 7 9 mph 1024.7mb 26f
8:00am 7 8 mph 1024.7mb 25f
7:50am 2 5 mph 1024.7mb 25f
7:40am 3 5 mph 1024.7mb 25f
7:30am 3 6 mph 1024.7mb 25f
7:20am 5 6 mph 1024.7mb 26f
7:16am 5 6 mph 1024.7mb 25f
7:10am 5 6 mph 1024.7mb 25f
7:00am 5 6 mph 1024.7mb 25f
6:50am 3 5 mph 1024.7mb 25f
6:40am 2 3 mph 1024.7mb 25f
6:30am 2 3 mph 1024.7mb 25f
6:20am 2 3 mph 1024.7mb 25f
6:16am 2 5 mph 1024.7mb 25f
6:10am 2 3 mph 1024.7mb 25f
6:00am 2 3 mph 1024.7mb 25f
5:50am 2 5 mph 1024.7mb 25f
5:40am 3
mph
1024.7mb 25f
5:30am 2 3 mph 1024.7mb 25f
5:20am 2
mph
1024.4mb 25f
5:15am 2 5 mph 1024.4mb 25f
5:10am 3
mph
1024.4mb 25f
5:00am 2 3 mph 1024.4mb 25f
4:50am 3
mph
1024.4mb 24f
4:40am 3
mph
1024.4mb 25f
4:30am 2 3 mph 1024.4mb 25f
4:20am 3 5 mph 1024.4mb 25f
4:15am 3 5 mph 1024.4mb 24f
4:10am 3 5 mph 1024.4mb 24f
4:00am 2 3 mph 1024mb 25f
3:50am 2
mph
1024mb 25f
3:40am 1 2 mph 1024mb 24f
3:30am 2 3 mph 1024mb 24f
3:20am  -  2 mph 1024mb 25f
3:15am  -  5 mph 1024mb 24f
3:10am 1 2 mph 1024mb 25f
3:00am 2
mph
1024mb 25f
2:50am 2 3 mph 1024mb 25f
2:40am 2 5 mph 1024mb 25f
2:30am 2 3 mph 1023.7mb 25f
2:20am  -  3 mph 1023.7mb 25f
2:14am 2 3 mph 1023.7mb 25f
2:10am 2 3 mph 1023.7mb 25f
2:00am 2
mph
1024mb 26f
1:50am 1 3 mph 1023.7mb 25f
1:40am  -  1 mph 1023.7mb 24f
1:30am 1 3 mph 1023.7mb 24f
1:20am 2
mph
1023.7mb 24f
1:14am 2 5 mph 1023.7mb 24f
1:10am 2 3 mph 1023.7mb 24f
1:00am 2 3 mph 1023.7mb 23f
12:50am 3
mph
1023.7mb 23f
12:40am 2 3 mph 1023.7mb 23f
12:30am 1 5 mph 1023.7mb 23f
12:20am 3 5 mph 1023.7mb 26f
12:13am 2 3 mph 1023.7mb 25f
12:10am 2
mph
1023.7mb 25f
12:00am 1 2 mph 1023.7mb 24f
Fri 12/19 11:50pm  -  1 mph 1023.7mb 23f
11:40pm 1 3 mph 1023.4mb 23f
11:30pm 3
mph
1023.7mb 23f
11:20pm 2 3 mph 1023.7mb 23f
11:13pm 2 3 mph 1024mb 22f
11:10pm  -  3 mph 1024mb 22f
11:00pm 2
mph
1024mb 22f
10:50pm 1 3 mph 1024mb 22f
10:40pm 2 3 mph - 23f
10:30pm 2 3 mph 1024.4mb 23f
10:20pm 1 2 mph 1024.4mb 22f
10:13pm 1 3 mph 1024.4mb 22f
10:10pm  -  2 mph 1024.7mb 22f
10:00pm 1 3 mph 1024.4mb 23f
9:50pm 2
mph
1024.4mb 22f
9:40pm 2 3 mph 1024.4mb 22f
9:30pm 2
mph
1024.4mb 20f
9:20pm 1 3 mph 1024.7mb 20f
9:12pm 2 3 mph 1024.7mb 19f
9:10pm 2 3 mph 1024.7mb 19f
9:00pm 2 3 mph 1024.7mb 20f
8:50pm 2 3 mph 1024.7mb 19f
8:40pm 2
mph
1024.7mb 19f
8:30pm 1 2 mph 1024.7mb 18f
8:20pm 1 2 mph 1024.7mb 17f
8:12pm 1 3 mph 1024.7mb 17f
8:10pm 1 2 mph 1024.7mb 17f
8:00pm 2 3 mph 1024.7mb 19f
7:50pm 2
mph
1024.7mb 19f
7:40pm 2
mph
1024.7mb 18f
7:30pm  -  2 mph 1024.7mb 22f
7:20pm 1 2 mph 1024.7mb 21f
7:11pm  -  3 mph 1024.7mb 21f
7:10pm  -  1 mph 1024.7mb 21f
7:00pm 1 2 mph 1024.7mb 20f
6:50pm 2 3 mph 1024.4mb 20f
6:40pm 3
mph
1024.4mb 20f
6:30pm 2 3 mph 1024.7mb 20f
6:20pm 2 3 mph 1024.7mb 21f
6:11pm 2 5 mph 1024.4mb 21f
6:10pm 2
mph
1024.4mb 21f
6:00pm 2
mph
1024.7mb 20f
5:50pm 2 5 mph 1024.7mb 24f
5:40pm 2 5 mph 1024.4mb 24f
5:30pm 2 5 mph 1024.4mb 24f
5:20pm 1 3 mph 1024.4mb 24f
5:11pm 2 5 mph 1024.4mb 24f
5:10pm 2 3 mph 1024.4mb 24f
5:00pm 2 3 mph 1024.4mb 24f
4:50pm 2 3 mph 1024.4mb 24f
4:40pm 2
mph
1024.4mb 25f
4:30pm 2 3 mph 1024mb 26f
4:20pm 2 5 mph 1024mb 26f
4:10pm 2 3 mph 1024mb 26f
4:00pm 2 3 mph 1024mb 26f
3:50pm 3 5 mph 1024mb 27f
3:40pm 5 6 mph 1024mb 28f
3:30pm 3 5 mph 1024mb 29f
3:20pm  -  2 mph 1024mb 30f
3:10pm 2 3 mph 1024mb 29f
3:00pm 2
mph
1023.7mb 30f
2:50pm  -  3 mph 1023.7mb 31f
2:40pm 3 5 mph 1023.7mb 30f
2:30pm 5 6 mph 1023.7mb 29f
2:20pm 5 7 mph 1023.7mb 28f
2:10pm 7 8 mph 1023.7mb 28f
2:09pm 7 8 mph 1023.7mb 28f
2:00pm 3 7 mph 1023.7mb 28f
1:50pm 3 6 mph 1023.7mb 29f
1:40pm 5 6 mph 1023.7mb 28f
1:30pm 5 6 mph 1023.7mb 29f
1:20pm 3 6 mph 1023.7mb 28f
1:10pm 3 5 mph 1023.7mb 28f
1:09pm 2 6 mph 1023.7mb 28f
1:00pm 3 6 mph 1023.7mb 28f
12:50pm 3 5 mph 1023.7mb 28f
12:40pm 3
mph
1023.7mb 27f
12:30pm 3
mph
1023.7mb 28f
12:20pm 2 3 mph 1024mb 28f
12:10pm 3 6 mph 1023.7mb 27f
12:00pm 5 6 mph 1024mb 26f
11:50am 5 6 mph 1024mb 26f
11:40am 5 6 mph 1024.4mb 27f
11:30am 3 5 mph 1024.4mb 27f
11:20am 1 5 mph 1024.4mb 27f
11:10am 5 6 mph 1024.7mb 30f
11:08am 5 6 mph 1024.7mb -
11:00am  -  2 mph 1024.7mb 35f
10:50am 1 2 mph 1024.7mb 33f
10:40am 2 3 mph 1031.8mb 31f
10:30am 2
mph
1025.1mb 33f
10:20am  -  1 mph 1025.4mb 33f
10:10am  -  1 mph 1025.4mb 30f
10:08am  -  1 mph 1025.4mb 31f
10:00am  -  2 mph 1025.4mb 32f
9:50am  -  mph 1025.4mb 33f
9:40am  -  2 mph 1025.4mb 29f
9:30am 2 3 mph 1025.1mb 24f
9:20am 2 5 mph 1025.1mb 22f
9:10am 3 5 mph 1025.1mb 21f
9:07am 3 5 mph 1025.1mb 21f
9:00am 3 5 mph 1025.1mb 21f
8:50am 3 5 mph 1025.1mb 20f
8:40am 3 5 mph 1025.1mb 19f
8:30am 3 5 mph 1025.1mb 19f
8:20am 2 3 mph 1025.1mb 17f
8:10am 3 5 mph 1025.1mb 16f
8:07am 3 5 mph 1024.7mb 15f
8:00am 3
mph
1025.1mb 15f
7:50am 3
mph
1024.7mb 15f
7:40am 2 5 mph 1024.7mb 14f
7:30am 3 5 mph 1024.7mb 13f
7:20am 3 5 mph 1024.7mb 13f
7:10am 5
mph
1024.4mb 13f
7:06am 3 5 mph 1024.4mb 13f
7:00am 3 5 mph 1024.4mb 13f
6:50am 5
mph
1024.4mb 13f
6:40am 3
mph
1024.4mb 13f
6:30am 3 5 mph 1024.4mb 13f
6:20am 3 5 mph 1024.4mb 13f
6:10am 3
mph
1024mb 13f
6:06am 3 5 mph 1024mb 13f
6:00am 3 5 mph 1024mb 13f
5:50am 3 5 mph 1024mb 13f
5:40am 5
mph
1024.4mb 13f
5:30am 5
mph
1024mb 14f
5:20am 5
mph
1024mb 13f
5:10am 3
mph
1023.7mb 14f
5:06am 2 6 mph 1023.7mb 13f
5:00am 2 3 mph 1023.4mb 15f
4:50am 2
mph
1023.4mb 16f
4:40am 1 2 mph 1023.4mb 15f
4:30am 2 5 mph 1023.4mb 15f
4:20am 3 6 mph 1023.4mb 15f
4:10am 3 5 mph 1023mb 15f
4:05am 5
mph
1023mb 14f
4:00am 3 5 mph 1023mb 14f
3:50am 5
mph
1023mb 14f
3:40am 3
mph
1023.4mb 13f
3:30am 3
mph
1023.4mb 13f
3:20am 2 3 mph 1023.4mb 13f
3:10am 2
mph
1023.4mb 14f
3:05am  -  3 mph 1023.4mb 14f
3:00am  -  1 mph 1023.4mb 15f
2:50am  -  2 mph 1023.4mb 16f
2:40am  -  2 mph 1023.4mb 17f
2:30am  -  3 mph 1023.4mb 18f
2:20am  -  2 mph 1023.4mb 18f
2:10am 1 5 mph 1023.4mb 17f
2:04am 3 5 mph 1023.4mb 15f
2:00am 3 5 mph 1023.4mb 15f
1:50am 2
mph
1023.4mb 15f
1:40am 2 3 mph 1023.4mb 17f
1:30am  -  2 mph 1023.4mb 16f
1:20am  -  3 mph 1023.4mb 18f
1:10am  -  3 mph 1023.4mb 18f
1:04am 1 9 mph 1023.4mb 18f
1:00am 1 3 mph 1023.4mb 18f
12:50am 2
mph
1023.4mb 19f
12:40am  -  2 mph 1023.4mb 19f
12:30am 1 5 mph 1023.4mb 19f
12:20am 5 9 mph 1023mb 19f
12:10am 7 9 mph 1023mb 20f
12:04am 8 9 mph 1023mb 20f
12:00am 8 9 mph 1023mb 20f
Thu 12/18 11:50pm 8 9 mph 1023mb 20f
11:40pm 7 9 mph 1023mb 20f
11:30pm 5 7 mph 1023mb 19f
11:20pm 3 5 mph 1023mb 18f
11:10pm 2 3 mph 1023mb 18f
11:03pm 1 9 mph 1023.4mb 18f
11:00pm  -  3 mph 1023.4mb 18f
10:50pm 2 6 mph 1023mb 19f
10:40pm 5 6 mph 1023.4mb 19f
10:30pm 3 7 mph 1023.4mb 20f
10:20pm 6 9 mph 1023mb 21f
10:10pm 7 9 mph 1023mb 21f
10:03pm 6 9 mph 1023mb 21f
10:00pm 7 9 mph 1023mb 21f
9:50pm 7 9 mph 1023mb 21f
9:40pm 7 9 mph 1023mb 21f
9:30pm 7 9 mph 1023mb 21f
9:20pm 7 8 mph 1023mb 21f
9:10pm 6 8 mph 1022.7mb 21f
9:02pm 5 9 mph 1022.7mb 21f
9:00pm 5 7 mph 1022.7mb 21f
8:50pm 6 7 mph 1022.7mb 20f
8:40pm 5 7 mph 1022.7mb 20f
8:30pm 6 7 mph 1022.7mb 20f
8:20pm 7 8 mph 1022.7mb 20f
8:10pm 7 9 mph 1022.7mb 20f
8:02pm 7 11 mph 1022.7mb 20f
8:00pm 7 10 mph 1022.7mb 20f
7:50pm 8 10 mph 1022.7mb 21f
7:40pm 8 11 mph 1022.7mb 21f
7:30pm 8 9 mph 1022.7mb 21f
7:20pm 8 9 mph 1023mb 21f
7:10pm 8 11 mph 1022.7mb 21f
7:02pm 8 10 mph 1023mb 21f
7:00pm 8 10 mph 1023mb 21f
6:50pm 8 10 mph 1023mb 20f
6:40pm 8 10 mph 1023mb 21f
6:30pm 8 9 mph 1023mb 21f
6:20pm 6 8 mph 1023mb 20f
6:10pm 6 7 mph 1023mb 21f
6:01pm 3 6 mph 1023mb 20f
6:00pm 3 5 mph 1023mb 20f
5:50pm 3 5 mph 1023mb 20f
5:40pm 2 5 mph 1023mb 20f
5:30pm 5
mph
1023mb 21f
5:20pm 3 5 mph 1023.4mb 21f
5:10pm 3 6 mph 1023mb 22f
5:01pm 3 9 mph 1023mb 22f
5:00pm 3 8 mph 1023mb 22f
4:50pm 6 8 mph 1023mb 23f
4:40pm 6 7 mph 1023mb 23f
4:30pm 6 8 mph 1023mb 23f
4:20pm 6 8 mph 1023mb 24f
4:10pm 6 9 mph 1023mb 24f
4:00pm 6 9 mph 1023mb 24f
3:50pm 5 7 mph 1023mb 24f
3:40pm 3 8 mph 1022.7mb 25f
3:30pm 8 11 mph 1022.7mb 26f
3:20pm 8 10 mph 1022.7mb 26f
3:10pm 7 11 mph 1022.7mb 26f
3:00pm 9 10 mph 1022.7mb 27f
2:50pm 8 11 mph 1022.4mb 27f
2:40pm 10 14 mph 1022.4mb 27f
2:30pm 9 14 mph 1022.4mb 27f
2:20pm 10 13 mph 1022.4mb 27f
2:10pm 10 13 mph 1022.4mb 27f
2:00pm 10 13 mph 1022.7mb 27f
1:50pm 8 11 mph 1022.7mb 27f
1:40pm 9 11 mph 1022.7mb 26f
1:30pm 6 10 mph 1022.7mb 27f
1:20pm 7 11 mph 1022.7mb 26f
1:10pm 9 11 mph 1022.7mb 26f
1:00pm 8 11 mph 1023mb 26f
12:50pm 8 11 mph 1023mb 25f
12:41pm 7 14 mph 1023mb 25f
12:40pm 7 13 mph 1023mb 25f
12:30pm 10 13 mph 1023mb 25f
12:20pm 10 11 mph 1023mb 25f
12:10pm 7 13 mph 1023.4mb 25f
12:00pm 10 14 mph 1023.4mb 24f
11:50am 10 14 mph 1023.4mb 25f
11:40am 10 14 mph 1023.4mb 24f
11:30am 9 14 mph 1023.4mb 24f
11:20am 8 15 mph 1023.7mb 24f
11:10am 9 14 mph 1023.7mb 23f
11:00am 7 14 mph 1023.7mb 23f
10:50am 8 15 mph 1023.7mb 23f
10:40am 14 17 mph 1023.7mb 22f
10:30am 13 16 mph 1023.7mb 22f
10:20am 11 17 mph 1023.7mb 22f
10:10am 13 16 mph 1023.7mb 21f
10:00am 11 16 mph 1024mb 21f
9:50am 10 15 mph 1023.7mb 21f
9:40am 9 18 mph 1024mb 21f
9:30am 11 15 mph 1024mb 20f
9:20am 9 16 mph 1024mb 20f
9:10am 11 14 mph 1023.7mb 20f
9:00am 9 15 mph 1023.7mb 20f
8:50am 7 10 mph 1023.7mb 20f
8:40am 5 13 mph 1023.7mb 20f
8:32am 9 17 mph 1023.4mb 19f
8:30am 8 13 mph 1023.4mb 19f
8:20am 8 14 mph 1023.7mb 19f
8:10am 10 14 mph 1023.7mb 19f
8:00am 10 15 mph 1023.4mb 19f
7:50am 13 16 mph 1023.4mb 19f
7:40am 13 17 mph 1023.4mb 19f
7:32am 13 18 mph 1023.4mb 19f
7:30am 11 16 mph 1023.4mb 19f
7:20am 10 14 mph 1023.4mb 18f
7:10am 9 11 mph 1023.4mb 18f
7:00am 10 16 mph 1023.4mb 19f
6:50am 13 17 mph 1023.4mb 19f
6:40am 15 18 mph 1023.4mb 19f
6:32am 13 17 mph 1023.4mb 19f
6:30am 11 17 mph 1023.4mb 19f
6:20am 10 14 mph 1023.4mb 19f
6:10am 9 13 mph 1023.4mb 19f
6:00am 9 11 mph 1023.4mb 19f
5:50am 7 9 mph 1023.4mb 19f
5:40am 5 8 mph 1023.4mb 19f
5:31am 6 14 mph 1023.4mb 19f
5:30am 6 13 mph 1023.4mb 19f
5:20am 9 14 mph 1023.7mb 20f
5:10am 9 13 mph 1023.4mb 19f
5:00am 8 13 mph 1023.4mb 19f
4:50am 7 11 mph 1023.4mb 19f
4:40am 7 11 mph 1023mb 19f
4:31am 7 14 mph 1023mb 19f
4:30am 7 11 mph 1023mb 19f
4:20am 9 14 mph 1023mb 19f
4:10am 7 11 mph 1023mb 19f
4:00am 6 8 mph 1023mb 19f
3:50am 6 7 mph 1023mb 20f
3:40am 5 7 mph 1023mb 19f
3:30am 6 13 mph 1023mb 20f
3:20am 7 11 mph 1022.7mb 20f
3:10am 6 11 mph 1022.7mb 20f
3:00am 8 10 mph 1022.7mb 21f
2:50am 8 13 mph 1022.4mb 21f
2:40am 8 11 mph 1022.4mb 21f
2:30am 9 21 mph 1022.4mb 21f
2:20am 10 13 mph 1022mb 22f
2:10am 8 11 mph 1022mb 22f
2:00am 8 14 mph 1022mb 22f
1:50am 11 20 mph 1021.7mb 22f
1:40am 17 21 mph 1021.7mb 23f
1:30am 11 16 mph 1021.7mb 23f
1:29am 10 23 mph 1021.3mb 23f
1:20am 14 17 mph 1021mb 23f
1:10am 9 22 mph 1021mb 23f
1:00am 15 23 mph 1021mb 23f